Westport, Connecticut
Current Conditions -  °F | °C
As of 11:39 AM on Monday 26 Jan 2015 (Local Time) from KBDR Reporting Station
Light Snow Light Snow  
Wind Chill:   Ceiling: 3700
Heat Index: 20°   Visibility: 2mi
Dew Point: 15°   Wind: 17mph
Humidity: 81%   Direction: 30°NNE
Pressure: 30.01"   Gusts: 23mph
Location:  41.14°N, 73.36°W
Report Text: KBDR 261639Z 03015G20KT 2SM -SN SCT025 OVC037 M07/M09 A3001 RMK AO2 VIS 1 1/4 R29 SE P0001 T10671094
Loading
Personal Weather Stations






























Interactive Weather Map New forecast layout! Learn more

10-Day Weather Forecast

Advertisements
Track Severe Weather on mobile